sensor_id;sensor_type;location;lat;lon;timestamp;pressure;altitude;pressure_sealevel;temperature;humidity
18500;BME280;9379;52.134;11.576;2023-07-09T00:01:43;101323.94;;;25.69;58.97
18500;BME280;9379;52.134;11.576;2023-07-09T00:04:10;101311.78;;;25.65;58.41
18500;BME280;9379;52.134;11.576;2023-07-09T00:06:38;101300.81;;;25.34;59.53
18500;BME280;9379;52.134;11.576;2023-07-09T00:09:12;101322.69;;;25.72;59.97
18500;BME280;9379;52.134;11.576;2023-07-09T00:11:39;101318.84;;;25.86;57.60
18500;BME280;9379;52.134;11.576;2023-07-09T00:14:08;101319.78;;;25.60;58.05
18500;BME280;9379;52.134;11.576;2023-07-09T00:16:35;101324.56;;;25.13;60.61
18500;BME280;9379;52.134;11.576;2023-07-09T00:19:03;101318.09;;;25.08;61.60
18500;BME280;9379;52.134;11.576;2023-07-09T00:21:30;101322.41;;;25.28;59.38
18500;BME280;9379;52.134;11.576;2023-07-09T00:23:59;101311.16;;;25.12;59.32
18500;BME280;9379;52.134;11.576;2023-07-09T00:26:30;101320.25;;;25.50;59.79
18500;BME280;9379;52.134;11.576;2023-07-09T00:28:57;101312.94;;;25.44;60.68
18500;BME280;9379;52.134;11.576;2023-07-09T00:31:26;101312.94;;;25.44;59.80
18500;BME280;9379;52.134;11.576;2023-07-09T00:33:53;101319.75;;;25.15;59.91
18500;BME280;9379;52.134;11.576;2023-07-09T00:36:26;101317.69;;;24.91;61.10
18500;BME280;9379;52.134;11.576;2023-07-09T00:38:53;101323.13;;;25.04;60.92
18500;BME280;9379;52.134;11.576;2023-07-09T00:41:22;101325.25;;;24.69;63.10
18500;BME280;9379;52.134;11.576;2023-07-09T00:43:50;101326.91;;;24.50;63.58
18500;BME280;9379;52.134;11.576;2023-07-09T00:49:26;101322.09;;;24.39;64.92
18500;BME280;9379;52.134;11.576;2023-07-09T00:51:56;101323.31;;;24.10;66.34
18500;BME280;9379;52.134;11.576;2023-07-09T00:54:29;101320.97;;;23.94;68.23
18500;BME280;9379;52.134;11.576;2023-07-09T00:57:01;101331.03;;;24.00;67.17
18500;BME280;9379;52.134;11.576;2023-07-09T00:59:32;101320.63;;;24.23;67.02
18500;BME280;9379;52.134;11.576;2023-07-09T01:01:59;101315.72;;;23.31;68.49
18500;BME280;9379;52.134;11.576;2023-07-09T01:04:28;101315.72;;;23.31;69.21
18500;BME280;9379;52.134;11.576;2023-07-09T01:06:56;101328.09;;;23.47;68.61
18500;BME280;9379;52.134;11.576;2023-07-09T01:09:24;101331.28;;;23.50;68.97
18500;BME280;9379;52.134;11.576;2023-07-09T01:11:51;101332.09;;;23.51;68.27
18500;BME280;9379;52.134;11.576;2023-07-09T01:14:22;101312.09;;;23.58;67.85
18500;BME280;9379;52.134;11.576;2023-07-09T01:16:58;101326.06;;;23.55;69.22
18500;BME280;9379;52.134;11.576;2023-07-09T01:19:28;101322.41;;;23.35;68.87
18500;BME280;9379;52.134;11.576;2023-07-09T01:21:58;101324.59;;;23.12;70.31
18500;BME280;9379;52.134;11.576;2023-07-09T01:24:48;101327.94;;;23.14;70.62
18500;BME280;9379;52.134;11.576;2023-07-09T01:27:18;101329.75;;;23.41;70.35
18500;BME280;9379;52.134;11.576;2023-07-09T01:29:45;101324.75;;;23.04;70.55
18500;BME280;9379;52.134;11.576;2023-07-09T01:32:15;101329.09;;;22.98;70.35
18500;BME280;9379;52.134;11.576;2023-07-09T01:34:44;101328.91;;;22.99;70.51
18500;BME280;9379;52.134;11.576;2023-07-09T01:37:14;101324.03;;;22.88;71.10
18500;BME280;9379;52.134;11.576;2023-07-09T01:39:41;101322.34;;;22.87;70.85
18500;BME280;9379;52.134;11.576;2023-07-09T01:42:08;101318.81;;;22.87;70.63
18500;BME280;9379;52.134;11.576;2023-07-09T01:44:35;101318.59;;;23.16;69.95
18500;BME280;9379;52.134;11.576;2023-07-09T01:47:04;101323.47;;;22.99;70.03
18500;BME280;9379;52.134;11.576;2023-07-09T01:49:31;101315.69;;;22.62;71.72
18500;BME280;9379;52.134;11.576;2023-07-09T01:51:59;101324.94;;;22.46;72.86
18500;BME280;9379;52.134;11.576;2023-07-09T01:54:29;101320.66;;;22.58;72.50
18500;BME280;9379;52.134;11.576;2023-07-09T01:57:11;101320.53;;;22.45;72.34
18500;BME280;9379;52.134;11.576;2023-07-09T01:59:38;101319.59;;;22.31;72.28
18500;BME280;9379;52.134;11.576;2023-07-09T02:02:06;101319.47;;;22.39;72.77
18500;BME280;9379;52.134;11.576;2023-07-09T02:04:33;101315.97;;;22.46;72.27
18500;BME280;9379;52.134;11.576;2023-07-09T02:07:00;101311.13;;;22.41;71.97
18500;BME280;9379;52.134;11.576;2023-07-09T02:09:26;101320.69;;;22.37;72.70
18500;BME280;9379;52.134;11.576;2023-07-09T02:11:58;101319.22;;;22.34;72.84
18500;BME280;9379;52.134;11.576;2023-07-09T02:14:25;101317.72;;;22.32;71.96
18500;BME280;9379;52.134;11.576;2023-07-09T02:16:52;101311.47;;;22.31;71.70
18500;BME280;9379;52.134;11.576;2023-07-09T02:19:19;101311.78;;;22.22;72.01
18500;BME280;9379;52.134;11.576;2023-07-09T02:21:46;101314.66;;;22.13;72.96
18500;BME280;9379;52.134;11.576;2023-07-09T02:24:13;101322.78;;;22.13;73.19
18500;BME280;9379;52.134;11.576;2023-07-09T02:26:39;101316.13;;;22.16;74.00
18500;BME280;9379;52.134;11.576;2023-07-09T02:29:07;101308.00;;;22.16;72.46
18500;BME280;9379;52.134;11.576;2023-07-09T02:31:34;101312.34;;;21.96;73.34
18500;BME280;9379;52.134;11.576;2023-07-09T02:34:01;101311.47;;;21.89;73.98
18500;BME280;9379;52.134;11.576;2023-07-09T02:36:29;101319.88;;;21.79;75.37
18500;BME280;9379;52.134;11.576;2023-07-09T02:38:55;101324.38;;;22.08;73.43
18500;BME280;9379;52.134;11.576;2023-07-09T02:41:22;101320.16;;;22.05;73.47
18500;BME280;9379;52.134;11.576;2023-07-09T02:43:49;101321.09;;;21.76;74.57
18500;BME280;9379;52.134;11.576;2023-07-09T02:46:17;101316.16;;;21.80;74.60
18500;BME280;9379;52.134;11.576;2023-07-09T02:48:44;101314.16;;;21.89;75.16
18500;BME280;9379;52.134;11.576;2023-07-09T02:51:11;101311.38;;;21.82;74.24
18500;BME280;9379;52.134;11.576;2023-07-09T02:53:37;101318.91;;;21.87;74.36
18500;BME280;9379;52.134;11.576;2023-07-09T02:56:04;101314.53;;;21.85;73.88
18500;BME280;9379;52.134;11.576;2023-07-09T02:58:31;101322.66;;;21.49;74.54
18500;BME280;9379;52.134;11.576;2023-07-09T03:00:57;101324.66;;;21.77;74.77
18500;BME280;9379;52.134;11.576;2023-07-09T03:03:26;101325.34;;;21.49;75.37
18500;BME280;9379;52.134;11.576;2023-07-09T03:05:53;101321.56;;;21.80;73.83
18500;BME280;9379;52.134;11.576;2023-07-09T03:08:20;101321.50;;;21.59;75.78
18500;BME280;9379;52.134;11.576;2023-07-09T03:10:47;101317.53;;;21.76;74.33
18500;BME280;9379;52.134;11.576;2023-07-09T03:13:14;101317.84;;;22.02;73.52
18500;BME280;9379;52.134;11.576;2023-07-09T03:15:41;101322.38;;;22.17;73.15
18500;BME280;9379;52.134;11.576;2023-07-09T03:18:07;101310.78;;;21.87;74.57
18500;BME280;9379;52.134;11.576;2023-07-09T03:20:36;101328.03;;;21.64;75.10
18500;BME280;9379;52.134;11.576;2023-07-09T03:23:04;101333.41;;;21.43;75.81
18500;BME280;9379;52.134;11.576;2023-07-09T03:25:31;101328.81;;;21.14;77.01
18500;BME280;9379;52.134;11.576;2023-07-09T03:27:57;101329.47;;;21.45;76.17
18500;BME280;9379;52.134;11.576;2023-07-09T03:30:24;101329.19;;;21.40;75.61
18500;BME280;9379;52.134;11.576;2023-07-09T03:32:51;101331.16;;;21.46;76.14
18500;BME280;9379;52.134;11.576;2023-07-09T03:35:18;101328.72;;;21.37;76.38
18500;BME280;9379;52.134;11.576;2023-07-09T03:37:46;101330.84;;;21.41;76.61
18500;BME280;9379;52.134;11.576;2023-07-09T03:40:20;101330.69;;;21.43;76.34
18500;BME280;9379;52.134;11.576;2023-07-09T03:42:48;101334.78;;;21.39;77.12
18500;BME280;9379;52.134;11.576;2023-07-09T03:45:15;101333.00;;;21.46;77.20
18500;BME280;9379;52.134;11.576;2023-07-09T03:47:42;101336.94;;;21.43;76.47
18500;BME280;9379;52.134;11.576;2023-07-09T03:50:09;101337.66;;;21.52;76.36
18500;BME280;9379;52.134;11.576;2023-07-09T03:52:36;101338.50;;;21.52;76.37
18500;BME280;9379;52.134;11.576;2023-07-09T03:55:05;101328.91;;;21.35;76.32
18500;BME280;9379;52.134;11.576;2023-07-09T03:57:33;101349.03;;;21.62;76.48
18500;BME280;9379;52.134;11.576;2023-07-09T04:00:00;101337.66;;;21.52;76.49
18500;BME280;9379;52.134;11.576;2023-07-09T04:02:27;101340.78;;;21.34;77.22
18500;BME280;9379;52.134;11.576;2023-07-09T04:04:53;101339.84;;;21.42;77.70
18500;BME280;9379;52.134;11.576;2023-07-09T04:07:20;101344.38;;;21.56;77.77
18500;BME280;9379;52.134;11.576;2023-07-09T04:09:47;101322.19;;;21.46;77.15
18500;BME280;9379;52.134;11.576;2023-07-09T04:12:15;101338.44;;;21.31;78.24
18500;BME280;9379;52.134;11.576;2023-07-09T04:14:42;101336.59;;;21.32;78.25
18500;BME280;9379;52.134;11.576;2023-07-09T04:17:08;101343.72;;;21.24;78.73
18500;BME280;9379;52.134;11.576;2023-07-09T04:19:35;101332.63;;;21.19;78.56
18500;BME280;9379;52.134;11.576;2023-07-09T04:22:02;101339.94;;;21.34;78.96
18500;BME280;9379;52.134;11.576;2023-07-09T04:24:30;101334.81;;;21.75;78.09
18500;BME280;9379;52.134;11.576;2023-07-09T04:26:58;101336.53;;;21.61;78.17
18500;BME280;9379;52.134;11.576;2023-07-09T04:29:29;101337.25;;;21.70;78.58
18500;BME280;9379;52.134;11.576;2023-07-09T04:31:59;101337.50;;;21.53;78.35
18500;BME280;9379;52.134;11.576;2023-07-09T04:34:26;101349.06;;;21.47;78.71
18500;BME280;9379;52.134;11.576;2023-07-09T04:36:53;101349.50;;;21.51;78.43
18500;BME280;9379;52.134;11.576;2023-07-09T04:39:19;101346.31;;;21.62;78.07
18500;BME280;9379;52.134;11.576;2023-07-09T04:41:46;101351.56;;;21.49;79.19
18500;BME280;9379;52.134;11.576;2023-07-09T04:44:13;101352.00;;;21.67;78.50
18500;BME280;9379;52.134;11.576;2023-07-09T04:46:42;101350.19;;;21.74;79.19
18500;BME280;9379;52.134;11.576;2023-07-09T04:49:09;101351.16;;;22.03;78.39
18500;BME280;9379;52.134;11.576;2023-07-09T04:51:37;101353.44;;;22.21;78.88
18500;BME280;9379;52.134;11.576;2023-07-09T04:54:04;101355.25;;;22.13;78.82
18500;BME280;9379;52.134;11.576;2023-07-09T04:56:31;101361.31;;;22.37;79.17
18500;BME280;9379;52.134;11.576;2023-07-09T04:58:58;101348.03;;;22.42;77.83
18500;BME280;9379;52.134;11.576;2023-07-09T05:01:25;101356.41;;;22.47;78.94
18500;BME280;9379;52.134;11.576;2023-07-09T05:03:54;101361.13;;;22.38;79.69
18500;BME280;9379;52.134;11.576;2023-07-09T05:06:20;101361.03;;;22.53;77.12
18500;BME280;9379;52.134;11.576;2023-07-09T05:08:48;101360.25;;;22.81;75.97
18500;BME280;9379;52.134;11.576;2023-07-09T05:11:15;101362.31;;;23.07;75.57
18500;BME280;9379;52.134;11.576;2023-07-09T05:13:42;101357.69;;;23.00;75.84
18500;BME280;9379;52.134;11.576;2023-07-09T05:16:08;101365.19;;;22.98;75.66
18500;BME280;9379;52.134;11.576;2023-07-09T05:18:36;101355.16;;;23.34;74.39
18500;BME280;9379;52.134;11.576;2023-07-09T05:21:04;101346.44;;;23.86;72.44
18500;BME280;9379;52.134;11.576;2023-07-09T05:23:31;101351.19;;;23.64;71.88
18500;BME280;9379;52.134;11.576;2023-07-09T05:25:58;101353.50;;;23.74;72.31
18500;BME280;9379;52.134;11.576;2023-07-09T05:28:26;101352.94;;;23.92;72.05
18500;BME280;9379;52.134;11.576;2023-07-09T05:30:53;101356.16;;;23.61;74.97
18500;BME280;9379;52.134;11.576;2023-07-09T05:33:21;101370.88;;;23.86;73.35
18500;BME280;9379;52.134;11.576;2023-07-09T05:35:48;101360.34;;;24.31;70.72
18500;BME280;9379;52.134;11.576;2023-07-09T05:38:16;101355.66;;;23.92;72.57
18500;BME280;9379;52.134;11.576;2023-07-09T05:40:43;101357.44;;;23.65;73.96
18500;BME280;9379;52.134;11.576;2023-07-09T05:43:10;101364.13;;;23.27;77.33
18500;BME280;9379;52.134;11.576;2023-07-09T05:45:38;101352.13;;;24.04;73.97
18500;BME280;9379;52.134;11.576;2023-07-09T05:48:06;101347.78;;;24.30;71.91
18500;BME280;9379;52.134;11.576;2023-07-09T05:50:34;101362.66;;;24.54;70.95
18500;BME280;9379;52.134;11.576;2023-07-09T05:53:01;101352.84;;;24.79;70.16
18500;BME280;9379;52.134;11.576;2023-07-09T05:55:29;101362.81;;;24.26;72.81
18500;BME280;9379;52.134;11.576;2023-07-09T05:57:56;101361.28;;;23.90;74.99
18500;BME280;9379;52.134;11.576;2023-07-09T06:00:23;101362.53;;;23.88;75.23
18500;BME280;9379;52.134;11.576;2023-07-09T06:02:49;101360.94;;;24.26;70.53
18500;BME280;9379;52.134;11.576;2023-07-09T06:05:16;101362.63;;;24.21;69.33
18500;BME280;9379;52.134;11.576;2023-07-09T06:07:43;101358.22;;;24.13;70.01
18500;BME280;9379;52.134;11.576;2023-07-09T06:10:10;101355.75;;;24.51;69.50
18500;BME280;9379;52.134;11.576;2023-07-09T06:12:40;101356.19;;;24.61;68.60
18500;BME280;9379;52.134;11.576;2023-07-09T06:15:10;101365.38;;;24.73;66.61
18500;BME280;9379;52.134;11.576;2023-07-09T06:17:37;101361.53;;;25.34;65.96
18500;BME280;9379;52.134;11.576;2023-07-09T06:20:05;101365.59;;;24.85;65.27
18500;BME280;9379;52.134;11.576;2023-07-09T06:22:32;101369.75;;;24.88;67.51
18500;BME280;9379;52.134;11.576;2023-07-09T06:24:59;101371.63;;;24.87;65.07
18500;BME280;9379;52.134;11.576;2023-07-09T06:27:26;101374.81;;;25.69;61.77
18500;BME280;9379;52.134;11.576;2023-07-09T06:29:54;101366.69;;;26.38;62.23
18500;BME280;9379;52.134;11.576;2023-07-09T06:32:20;101363.81;;;27.63;60.01
18500;BME280;9379;52.134;11.576;2023-07-09T06:34:47;101355.28;;;30.29;53.06
18500;BME280;9379;52.134;11.576;2023-07-09T06:37:14;101359.31;;;31.10;50.70
18500;BME280;9379;52.134;11.576;2023-07-09T06:39:41;101358.19;;;29.65;53.92
18500;BME280;9379;52.134;11.576;2023-07-09T06:42:08;101370.56;;;26.56;63.21
18500;BME280;9379;52.134;11.576;2023-07-09T06:44:35;101376.19;;;27.11;59.90
18500;BME280;9379;52.134;11.576;2023-07-09T06:47:03;101366.34;;;27.65;58.39
18500;BME280;9379;52.134;11.576;2023-07-09T06:49:30;101363.72;;;28.71;56.08
18500;BME280;9379;52.134;11.576;2023-07-09T06:51:57;101368.84;;;28.80;54.86
18500;BME280;9379;52.134;11.576;2023-07-09T06:54:24;101372.38;;;28.57;56.38
18500;BME280;9379;52.134;11.576;2023-07-09T06:56:51;101375.56;;;27.63;56.49
18500;BME280;9379;52.134;11.576;2023-07-09T06:59:18;101358.91;;;27.35;58.26
18500;BME280;9379;52.134;11.576;2023-07-09T07:01:44;101376.78;;;27.13;60.09
18500;BME280;9379;52.134;11.576;2023-07-09T07:04:13;101368.66;;;27.43;58.29
18500;BME280;9379;52.134;11.576;2023-07-09T07:06:41;101371.41;;;27.43;58.45
18500;BME280;9379;52.134;11.576;2023-07-09T07:09:07;101373.63;;;27.34;58.42
18500;BME280;9379;52.134;11.576;2023-07-09T07:11:35;101368.97;;;27.53;59.04
18500;BME280;9379;52.134;11.576;2023-07-09T07:14:01;101368.63;;;26.31;61.62
18500;BME280;9379;52.134;11.576;2023-07-09T07:16:28;101362.50;;;26.36;62.20
18500;BME280;9379;52.134;11.576;2023-07-09T07:18:55;101359.78;;;26.36;63.33
18500;BME280;9379;52.134;11.576;2023-07-09T07:21:23;101353.19;;;27.18;60.88
18500;BME280;9379;52.134;11.576;2023-07-09T07:23:50;101357.09;;;26.61;62.22
18500;BME280;9379;52.134;11.576;2023-07-09T07:26:16;101359.13;;;26.90;61.27
18500;BME280;9379;52.134;11.576;2023-07-09T07:28:43;101359.28;;;27.39;59.26
18500;BME280;9379;52.134;11.576;2023-07-09T07:31:11;101363.19;;;26.63;62.79
18500;BME280;9379;52.134;11.576;2023-07-09T07:33:39;101358.56;;;26.32;62.50
18500;BME280;9379;52.134;11.576;2023-07-09T07:36:07;101358.31;;;26.90;62.07
18500;BME280;9379;52.134;11.576;2023-07-09T07:38:35;101366.63;;;27.01;62.27
18500;BME280;9379;52.134;11.576;2023-07-09T07:41:02;101366.50;;;26.40;63.46
18500;BME280;9379;52.134;11.576;2023-07-09T07:43:29;101365.59;;;26.46;65.25
18500;BME280;9379;52.134;11.576;2023-07-09T07:45:55;101363.28;;;26.74;63.86
18500;BME280;9379;52.134;11.576;2023-07-09T07:48:22;101353.59;;;27.22;61.49
18500;BME280;9379;52.134;11.576;2023-07-09T07:50:49;101351.00;;;27.27;62.33
18500;BME280;9379;52.134;11.576;2023-07-09T07:53:16;101358.81;;;26.80;62.63
18500;BME280;9379;52.134;11.576;2023-07-09T07:55:44;101359.16;;;26.65;61.32
18500;BME280;9379;52.134;11.576;2023-07-09T07:58:12;101354.41;;;26.79;62.39
18500;BME280;9379;52.134;11.576;2023-07-09T08:00:39;101363.97;;;27.50;60.42
18500;BME280;9379;52.134;11.576;2023-07-09T08:03:06;101357.97;;;27.59;60.13
18500;BME280;9379;52.134;11.576;2023-07-09T08:05:33;101360.31;;;27.19;61.74
18500;BME280;9379;52.134;11.576;2023-07-09T08:07:59;101354.56;;;27.64;59.82
18500;BME280;9379;52.134;11.576;2023-07-09T08:10:26;101359.91;;;28.19;58.18
18500;BME280;9379;52.134;11.576;2023-07-09T08:12:54;101340.69;;;28.26;58.22
18500;BME280;9379;52.134;11.576;2023-07-09T08:15:23;101362.13;;;28.10;59.46
18500;BME280;9379;52.134;11.576;2023-07-09T08:17:50;101355.03;;;28.51;57.76
18500;BME280;9379;52.134;11.576;2023-07-09T08:20:17;101345.28;;;28.67;56.20
18500;BME280;9379;52.134;11.576;2023-07-09T08:22:44;101350.75;;;28.78;54.85
18500;BME280;9379;52.134;11.576;2023-07-09T08:25:11;101350.16;;;28.53;56.89
18500;BME280;9379;52.134;11.576;2023-07-09T08:27:38;101347.91;;;28.20;59.29
18500;BME280;9379;52.134;11.576;2023-07-09T08:30:08;101346.34;;;28.77;56.52
18500;BME280;9379;52.134;11.576;2023-07-09T08:32:35;101346.97;;;28.91;56.00
18500;BME280;9379;52.134;11.576;2023-07-09T08:35:02;101345.19;;;28.97;55.76
18500;BME280;9379;52.134;11.576;2023-07-09T08:37:29;101336.59;;;29.05;57.19
18500;BME280;9379;52.134;11.576;2023-07-09T08:39:56;101343.44;;;29.43;54.82
18500;BME280;9379;52.134;11.576;2023-07-09T08:42:27;101345.56;;;28.89;57.35
18500;BME280;9379;52.134;11.576;2023-07-09T08:45:03;101350.44;;;28.98;58.53
18500;BME280;9379;52.134;11.576;2023-07-09T08:47:45;101349.31;;;28.53;57.74
18500;BME280;9379;52.134;11.576;2023-07-09T08:50:15;101338.69;;;29.38;56.78
18500;BME280;9379;52.134;11.576;2023-07-09T08:52:44;101347.31;;;29.70;55.90
18500;BME280;9379;52.134;11.576;2023-07-09T08:55:14;101347.59;;;29.45;56.13
18500;BME280;9379;52.134;11.576;2023-07-09T08:57:43;101340.13;;;29.81;54.50
18500;BME280;9379;52.134;11.576;2023-07-09T09:00:15;101344.03;;;29.45;55.00
18500;BME280;9379;52.134;11.576;2023-07-09T09:02:50;101343.47;;;29.31;57.41
18500;BME280;9379;52.134;11.576;2023-07-09T09:05:20;101338.47;;;29.80;56.88
18500;BME280;9379;52.134;11.576;2023-07-09T09:07:51;101347.03;;;30.12;56.08
18500;BME280;9379;52.134;11.576;2023-07-09T09:10:26;101343.44;;;29.83;54.41
18500;BME280;9379;52.134;11.576;2023-07-09T09:13:05;101349.91;;;30.34;54.34
18500;BME280;9379;52.134;11.576;2023-07-09T09:15:36;101337.16;;;30.28;53.88
18500;BME280;9379;52.134;11.576;2023-07-09T09:18:26;101339.19;;;30.04;57.03
18500;BME280;9379;52.134;11.576;2023-07-09T09:20:55;101342.41;;;30.12;56.70
18500;BME280;9379;52.134;11.576;2023-07-09T09:23:29;101329.78;;;30.45;56.60
18500;BME280;9379;52.134;11.576;2023-07-09T09:25:59;101316.13;;;30.84;54.51
18500;BME280;9379;52.134;11.576;2023-07-09T09:28:28;101327.53;;;30.75;53.63
18500;BME280;9379;52.134;11.576;2023-07-09T09:30:55;101327.53;;;30.59;53.95
18500;BME280;9379;52.134;11.576;2023-07-09T09:33:23;101327.19;;;31.27;52.78
18500;BME280;9379;52.134;11.576;2023-07-09T09:36:01;101321.56;;;31.39;52.55
18500;BME280;9379;52.134;11.576;2023-07-09T09:38:35;101317.06;;;31.55;52.15
18500;BME280;9379;52.134;11.576;2023-07-09T09:41:02;101321.94;;;30.87;53.03
18500;BME280;9379;52.134;11.576;2023-07-09T09:43:32;101328.25;;;31.48;55.95
18500;BME280;9379;52.134;11.576;2023-07-09T09:45:59;101317.84;;;31.99;54.80
18500;BME280;9379;52.134;11.576;2023-07-09T09:48:31;101313.72;;;31.97;51.12
18500;BME280;9379;52.134;11.576;2023-07-09T09:50:59;101311.16;;;31.68;52.77
18500;BME280;9379;52.134;11.576;2023-07-09T09:53:30;101310.91;;;32.23;51.89
18500;BME280;9379;52.134;11.576;2023-07-09T09:56:04;101312.00;;;31.69;51.56
18500;BME280;9379;52.134;11.576;2023-07-09T09:58:31;101302.50;;;31.54;52.65
18500;BME280;9379;52.134;11.576;2023-07-09T10:00:59;101300.88;;;32.39;49.50
18500;BME280;9379;52.134;11.576;2023-07-09T10:03:34;101307.28;;;32.87;48.48
18500;BME280;9379;52.134;11.576;2023-07-09T10:06:05;101303.84;;;33.12;48.22
18500;BME280;9379;52.134;11.576;2023-07-09T10:08:41;101307.56;;;33.38;47.53
18500;BME280;9379;52.134;11.576;2023-07-09T10:11:19;101308.94;;;33.41;45.69
18500;BME280;9379;52.134;11.576;2023-07-09T10:13:51;101310.63;;;33.57;47.34
18500;BME280;9379;52.134;11.576;2023-07-09T10:16:27;101308.97;;;33.51;45.86
18500;BME280;9379;52.134;11.576;2023-07-09T10:19:09;101302.13;;;33.79;46.46
18500;BME280;9379;52.134;11.576;2023-07-09T10:21:44;101306.94;;;33.26;47.26
18500;BME280;9379;52.134;11.576;2023-07-09T10:24:22;101296.41;;;33.18;47.63
18500;BME280;9379;52.134;11.576;2023-07-09T10:26:58;101299.38;;;33.01;48.59
18500;BME280;9379;52.134;11.576;2023-07-09T10:29:43;101300.88;;;33.34;46.10
18500;BME280;9379;52.134;11.576;2023-07-09T10:32:18;101298.31;;;33.90;44.80
18500;BME280;9379;52.134;11.576;2023-07-09T10:34:55;101295.25;;;33.71;48.31
18500;BME280;9379;52.134;11.576;2023-07-09T10:37:33;101293.66;;;34.16;49.86
18500;BME280;9379;52.134;11.576;2023-07-09T10:40:09;101289.25;;;34.20;41.80
18500;BME280;9379;52.134;11.576;2023-07-09T10:42:42;101292.28;;;34.29;46.58
18500;BME280;9379;52.134;11.576;2023-07-09T10:45:13;101287.03;;;34.12;42.54
18500;BME280;9379;52.134;11.576;2023-07-09T10:47:43;101281.50;;;33.97;43.04
18500;BME280;9379;52.134;11.576;2023-07-09T10:50:17;101285.09;;;34.07;44.37
18500;BME280;9379;52.134;11.576;2023-07-09T10:52:50;101267.09;;;33.79;48.75
18500;BME280;9379;52.134;11.576;2023-07-09T10:55:25;101275.94;;;34.68;43.71
18500;BME280;9379;52.134;11.576;2023-07-09T10:57:57;101270.03;;;35.10;41.73
18500;BME280;9379;52.134;11.576;2023-07-09T11:00:33;101267.94;;;35.46;41.02
18500;BME280;9379;52.134;11.576;2023-07-09T11:03:04;101272.91;;;35.49;40.07
18500;BME280;9379;52.134;11.576;2023-07-09T11:05:34;101273.25;;;35.32;41.66
18500;BME280;9379;52.134;11.576;2023-07-09T11:08:05;101274.38;;;35.26;42.44
18500;BME280;9379;52.134;11.576;2023-07-09T11:10:36;101274.59;;;34.50;43.65
18500;BME280;9379;52.134;11.576;2023-07-09T11:13:10;101273.34;;;35.07;41.81
18500;BME280;9379;52.134;11.576;2023-07-09T11:15:40;101279.16;;;35.11;42.78
18500;BME280;9379;52.134;11.576;2023-07-09T11:18:12;101276.06;;;35.22;45.31
18500;BME280;9379;52.134;11.576;2023-07-09T11:20:44;101268.44;;;34.84;45.50
18500;BME280;9379;52.134;11.576;2023-07-09T11:23:19;101266.81;;;34.77;46.61
18500;BME280;9379;52.134;11.576;2023-07-09T11:25:47;101263.53;;;34.65;43.41
18500;BME280;9379;52.134;11.576;2023-07-09T11:28:15;101244.69;;;34.98;42.44
18500;BME280;9379;52.134;11.576;2023-07-09T11:30:47;101255.41;;;35.09;43.72
18500;BME280;9379;52.134;11.576;2023-07-09T11:33:18;101250.91;;;35.19;40.02
18500;BME280;9379;52.134;11.576;2023-07-09T11:35:48;101248.47;;;35.12;42.48
18500;BME280;9379;52.134;11.576;2023-07-09T11:38:17;101249.09;;;34.94;43.71
18500;BME280;9379;52.134;11.576;2023-07-09T11:40:46;101243.84;;;35.52;40.67
18500;BME280;9379;52.134;11.576;2023-07-09T11:43:27;101253.91;;;35.32;45.22
18500;BME280;9379;52.134;11.576;2023-07-09T11:45:55;101236.97;;;35.83;42.00
18500;BME280;9379;52.134;11.576;2023-07-09T11:48:25;101231.53;;;35.73;41.18
18500;BME280;9379;52.134;11.576;2023-07-09T11:50:54;101235.59;;;35.47;42.40
18500;BME280;9379;52.134;11.576;2023-07-09T11:53:29;101237.03;;;35.29;42.85
18500;BME280;9379;52.134;11.576;2023-07-09T11:56:00;101243.28;;;34.95;40.76
18500;BME280;9379;52.134;11.576;2023-07-09T11:58:27;101241.94;;;34.88;41.18
18500;BME280;9379;52.134;11.576;2023-07-09T12:00:55;101240.75;;;35.09;41.39
18500;BME280;9379;52.134;11.576;2023-07-09T12:03:24;101220.97;;;35.80;39.14
18500;BME280;9379;52.134;11.576;2023-07-09T12:05:54;101231.84;;;36.35;42.63
18500;BME280;9379;52.134;11.576;2023-07-09T12:08:26;101234.13;;;35.10;43.82
18500;BME280;9379;52.134;11.576;2023-07-09T12:10:53;101227.78;;;35.54;45.40
18500;BME280;9379;52.134;11.576;2023-07-09T12:13:20;101231.38;;;35.05;41.55
18500;BME280;9379;52.134;11.576;2023-07-09T12:15:47;101209.78;;;35.07;43.57
18500;BME280;9379;52.134;11.576;2023-07-09T12:18:15;101216.47;;;35.55;41.64
18500;BME280;9379;52.134;11.576;2023-07-09T12:20:50;101210.66;;;35.02;43.29
18500;BME280;9379;52.134;11.576;2023-07-09T12:23:23;101208.94;;;35.61;42.46
18500;BME280;9379;52.134;11.576;2023-07-09T12:25:52;101200.88;;;35.64;40.32
18500;BME280;9379;52.134;11.576;2023-07-09T12:28:20;101209.66;;;35.32;40.32
18500;BME280;9379;52.134;11.576;2023-07-09T12:30:49;101199.56;;;35.57;42.10
18500;BME280;9379;52.134;11.576;2023-07-09T12:33:17;101199.53;;;35.62;39.45
18500;BME280;9379;52.134;11.576;2023-07-09T12:35:45;101200.72;;;35.90;43.14
18500;BME280;9379;52.134;11.576;2023-07-09T12:38:17;101203.00;;;35.38;42.87
18500;BME280;9379;52.134;11.576;2023-07-09T12:40:47;101196.00;;;35.85;39.60
18500;BME280;9379;52.134;11.576;2023-07-09T12:43:15;101194.22;;;36.34;42.50
18500;BME280;9379;52.134;11.576;2023-07-09T12:45:44;101175.69;;;36.29;39.42
18500;BME280;9379;52.134;11.576;2023-07-09T12:48:11;101181.13;;;36.63;40.38
18500;BME280;9379;52.134;11.576;2023-07-09T12:50:39;101182.06;;;36.77;40.93
18500;BME280;9379;52.134;11.576;2023-07-09T12:53:13;101166.41;;;35.57;40.79
18500;BME280;9379;52.134;11.576;2023-07-09T12:55:42;101172.25;;;36.42;40.43
18500;BME280;9379;52.134;11.576;2023-07-09T12:58:17;101172.16;;;35.94;41.39
18500;BME280;9379;52.134;11.576;2023-07-09T13:00:48;101180.63;;;35.35;42.11
18500;BME280;9379;52.134;11.576;2023-07-09T13:03:19;101181.88;;;35.53;41.81